Terminal Aerodrome Forecast
Issued by NWS Blacksburg, VA

Home | Current Version | Previous Version | Text Only | Print | Product List | Glossary On
Versions: 1 2 3 4 5 6 7 8 9 10 11 12 13 14 15 16 17 18 19 20 21 22 23 24 25 26 27 28 29 30 31 32 33 34 35 36 37 38 39 40 41 42 43 44 45 46 47 48
000
FTUS41 KRNK 241458 AAC
TAFROA
TAF AMD
KROA 241458Z 2415/2512 11005KT 5SM -DZ BR OVC006
      TEMPO 2415/2417 3SM BR OVC005
     FM242100 12007KT 5SM -SHRA OVC010
     FM250400 12005KT P6SM OVC005
     FM250900 26004KT P6SM OVC015=

USA.gov is the U.S. government's official web portal to all federal, state and local government web resources and services.